createdAt,value
2023-01-26T00:02:10.313Z,99368.13
2023-01-26T00:04:37.891Z,99351.03
2023-01-26T00:07:05.492Z,99360.91
2023-01-26T00:09:33.045Z,99349.59
2023-01-26T00:12:00.649Z,99340.56
2023-01-26T00:14:48.551Z,99349.28
2023-01-26T00:17:25.901Z,99349.28
2023-01-26T00:19:58.887Z,99342.22
2023-01-26T00:22:27.906Z,99342.28
2023-01-26T00:24:55.764Z,99342.84
2023-01-26T00:27:23.480Z,99338.59
2023-01-26T00:29:51.143Z,99328.72
2023-01-26T00:32:18.680Z,99327.19
2023-01-26T00:34:46.519Z,99316.31
2023-01-26T00:37:14.479Z,99318.91
2023-01-26T00:39:42.295Z,99304.22
2023-01-26T00:42:11.331Z,99309.56
2023-01-26T00:44:48.914Z,99301.38
2023-01-26T00:47:22.426Z,99298.91
2023-01-26T00:49:51.201Z,99306.59
2023-01-26T00:52:18.830Z,99295.78
2023-01-26T00:54:46.906Z,99296.16
2023-01-26T00:57:15.669Z,99290.75
2023-01-26T00:59:43.316Z,99284.47
2023-01-26T01:02:11.040Z,99293.63
2023-01-26T01:04:38.596Z,99291.00
2023-01-26T01:07:06.385Z,99292.63
2023-01-26T01:09:34.186Z,99294.13
2023-01-26T01:12:01.965Z,99286.19
2023-01-26T01:14:30.033Z,99284.28
2023-01-26T01:16:57.845Z,99282.25
2023-01-26T01:19:25.863Z,99283.88
2023-01-26T01:21:53.561Z,99284.59
2023-01-26T01:24:21.528Z,99276.69
2023-01-26T01:26:49.505Z,99286.41
2023-01-26T01:29:17.198Z,99288.16
2023-01-26T01:31:45.104Z,99280.16
2023-01-26T01:34:12.962Z,99276.44
2023-01-26T01:36:43.599Z,99278.56
2023-01-26T01:39:11.640Z,99279.41
2023-01-26T01:41:39.633Z,99279.47
2023-01-26T01:44:24.213Z,99275.69
2023-01-26T01:47:12.161Z,99275.78
2023-01-26T01:49:49.794Z,99264.78
2023-01-26T01:52:26.136Z,99263.13
2023-01-26T01:55:02.198Z,99259.59
2023-01-26T01:57:45.062Z,99271.22
2023-01-26T02:00:18.479Z,99269.66
2023-01-26T02:03:11.480Z,99267.56
2023-01-26T02:05:55.914Z,99262.13
2023-01-26T02:08:31.324Z,99264.03
2023-01-26T02:11:05.756Z,99260.09
2023-01-26T02:13:35.318Z,99255.34
2023-01-26T02:16:05.237Z,99258.56
2023-01-26T02:18:33.389Z,99259.00
2023-01-26T02:21:04.636Z,99248.09
2023-01-26T02:24:00.411Z,99254.91
2023-01-26T02:26:32.160Z,99251.84
2023-01-26T02:29:01.778Z,99244.53
2023-01-26T02:31:30.848Z,99242.38
2023-01-26T02:33:59.187Z,99242.13
2023-01-26T02:36:30.463Z,99241.28
2023-01-26T02:39:25.294Z,99233.97
2023-01-26T02:42:29.812Z,99238.34
2023-01-26T02:44:57.798Z,99240.41
2023-01-26T02:47:25.730Z,99229.75
2023-01-26T02:49:53.428Z,99232.00
2023-01-26T02:52:26.047Z,99233.69
2023-01-26T02:55:28.533Z,99230.47
2023-01-26T02:58:02.974Z,99223.09
2023-01-26T03:00:42.033Z,99225.13
2023-01-26T03:03:41.396Z,99216.50
2023-01-26T03:06:11.058Z,99220.47
2023-01-26T03:08:39.519Z,99217.94
2023-01-26T03:11:08.968Z,99211.63
2023-01-26T03:13:36.654Z,99210.72
2023-01-26T03:16:10.171Z,99209.81
2023-01-26T03:18:56.301Z,99202.38
2023-01-26T03:21:42.515Z,99193.44
2023-01-26T03:24:33.539Z,99205.47
2023-01-26T03:27:23.420Z,99191.06
2023-01-26T03:29:52.339Z,99186.56
2023-01-26T03:32:19.986Z,99187.28
2023-01-26T03:34:48.112Z,99194.75
2023-01-26T03:37:15.904Z,99186.38
2023-01-26T03:40:12.065Z,99184.25
2023-01-26T03:42:58.613Z,99181.59
2023-01-26T03:45:46.751Z,99183.19
2023-01-26T03:48:32.834Z,99182.41
2023-01-26T03:51:20.548Z,99186.91
2023-01-26T03:54:06.578Z,99190.69
2023-01-26T03:56:40.448Z,99189.75
2023-01-26T03:59:15.645Z,99189.75
2023-01-26T04:02:05.882Z,99197.13
2023-01-26T04:04:53.537Z,99194.50
2023-01-26T04:07:48.363Z,99198.09
2023-01-26T04:10:16.421Z,99200.13
2023-01-26T04:12:44.185Z,99202.53
2023-01-26T04:15:35.722Z,99200.34
2023-01-26T04:18:27.023Z,99193.81
2023-01-26T04:21:14.134Z,99200.84
2023-01-26T04:23:44.289Z,99194.63
2023-01-26T04:26:12.064Z,99192.16
2023-01-26T04:28:42.397Z,99179.41
2023-01-26T04:31:10.277Z,99183.75
2023-01-26T04:33:38.890Z,99185.41
2023-01-26T04:36:09.594Z,99184.47
2023-01-26T04:38:41.246Z,99178.94
2023-01-26T04:41:09.180Z,99183.38
2023-01-26T04:43:43.698Z,99176.47
2023-01-26T04:46:11.541Z,99172.72
2023-01-26T04:48:41.416Z,99167.34
2023-01-26T04:51:19.902Z,99165.56
2023-01-26T04:53:49.451Z,99158.50
2023-01-26T04:56:23.153Z,99147.72
2023-01-26T04:58:53.387Z,99154.84
2023-01-26T05:01:22.690Z,99169.06
2023-01-26T05:03:51.283Z,99158.28
2023-01-26T05:06:18.977Z,99156.44
2023-01-26T05:08:49.050Z,99159.16
2023-01-26T05:11:16.701Z,99161.94
2023-01-26T05:14:16.882Z,99156.63
2023-01-26T05:17:03.478Z,99157.47
2023-01-26T05:19:49.415Z,99160.09
2023-01-26T05:22:19.918Z,99158.38
2023-01-26T05:25:13.671Z,99158.59
2023-01-26T05:27:48.887Z,99172.13
2023-01-26T05:30:17.252Z,99165.63
2023-01-26T05:32:44.992Z,99167.34
2023-01-26T05:35:13.987Z,99174.50
2023-01-26T05:37:42.488Z,99170.91
2023-01-26T05:40:12.841Z,99174.41
2023-01-26T05:42:42.684Z,99168.94
2023-01-26T05:45:20.447Z,99168.91
2023-01-26T05:47:50.734Z,99177.94
2023-01-26T05:50:20.826Z,99178.88
2023-01-26T05:53:09.967Z,99178.88
2023-01-26T05:55:38.685Z,99175.28
2023-01-26T05:58:06.635Z,99183.31
2023-01-26T06:00:36.511Z,99177.16
2023-01-26T06:03:10.125Z,99177.84
2023-01-26T06:05:38.946Z,99181.91
2023-01-26T06:08:17.349Z,99179.81
2023-01-26T06:11:02.681Z,99190.41
2023-01-26T06:13:46.435Z,99182.41
2023-01-26T06:16:28.362Z,99179.84
2023-01-26T06:18:56.885Z,99182.34
2023-01-26T06:21:24.953Z,99177.22
2023-01-26T06:23:53.649Z,99180.00
2023-01-26T06:26:21.318Z,99179.94
2023-01-26T06:28:49.039Z,99170.19
2023-01-26T06:31:18.208Z,99185.38
2023-01-26T06:33:45.921Z,99185.28
2023-01-26T06:36:15.859Z,99180.78
2023-01-26T06:38:50.264Z,99188.16
2023-01-26T06:41:19.164Z,99183.53
2023-01-26T06:43:49.345Z,99181.78
2023-01-26T06:46:20.873Z,99185.25
2023-01-26T06:48:50.514Z,99181.78
2023-01-26T06:51:21.346Z,99184.41
2023-01-26T06:53:55.977Z,99176.59
2023-01-26T06:56:32.396Z,99177.31
2023-01-26T06:59:20.499Z,99179.38
2023-01-26T07:02:19.651Z,99181.91
2023-01-26T07:04:48.663Z,99173.88
2023-01-26T07:07:17.118Z,99178.19
2023-01-26T07:09:44.850Z,99187.84
2023-01-26T07:12:12.550Z,99183.63
2023-01-26T07:14:40.367Z,99185.38
2023-01-26T07:17:08.225Z,99186.16
2023-01-26T07:19:37.574Z,99181.56
2023-01-26T07:22:05.229Z,99178.75
2023-01-26T07:24:33.093Z,99190.22
2023-01-26T07:27:01.240Z,99191.25
2023-01-26T07:29:29.355Z,99194.91
2023-01-26T07:31:57.158Z,99193.06
2023-01-26T07:34:27.780Z,99192.00
2023-01-26T07:36:55.330Z,99190.41
2023-01-26T07:39:22.941Z,99186.94
2023-01-26T07:41:50.812Z,99195.84
2023-01-26T07:44:41.868Z,99199.31
2023-01-26T07:47:11.592Z,99194.97
2023-01-26T07:49:39.217Z,99206.47
2023-01-26T07:52:08.740Z,99197.44
2023-01-26T07:54:36.449Z,99198.22
2023-01-26T07:57:06.896Z,99196.50
2023-01-26T07:59:34.928Z,99199.09
2023-01-26T08:02:02.725Z,99193.69
2023-01-26T08:04:30.667Z,99186.00
2023-01-26T08:06:58.370Z,99190.50
2023-01-26T08:09:26.553Z,99189.53
2023-01-26T08:11:57.244Z,99191.16
2023-01-26T08:14:25.051Z,99188.59
2023-01-26T08:16:52.865Z,99189.44
2023-01-26T08:19:20.454Z,99186.63
2023-01-26T08:21:48.075Z,99183.25
2023-01-26T08:24:16.109Z,99179.63
2023-01-26T08:26:43.977Z,99185.63
2023-01-26T08:29:11.764Z,99178.47
2023-01-26T08:31:39.524Z,99179.41
2023-01-26T08:34:07.247Z,99174.09
2023-01-26T08:36:37.828Z,99181.06
2023-01-26T08:39:05.555Z,99183.06
2023-01-26T08:41:33.593Z,99197.03
2023-01-26T08:44:01.523Z,99181.97
2023-01-26T08:46:29.379Z,99180.78
2023-01-26T08:48:59.330Z,99182.53
2023-01-26T08:51:28.452Z,99172.72
2023-01-26T08:53:56.412Z,99173.59
2023-01-26T08:56:24.219Z,99169.22
2023-01-26T08:58:51.927Z,99169.78
2023-01-26T09:01:19.675Z,99162.75
2023-01-26T09:03:47.405Z,99164.53
2023-01-26T09:06:15.883Z,99164.34
2023-01-26T09:08:43.756Z,99167.91
2023-01-26T09:11:14.778Z,99161.72
2023-01-26T09:13:45.274Z,99163.63
2023-01-26T09:16:20.535Z,99168.63
2023-01-26T09:18:51.903Z,99158.19
2023-01-26T09:21:20.218Z,99159.16
2023-01-26T09:23:48.302Z,99170.13
2023-01-26T09:26:16.174Z,99168.34
2023-01-26T09:28:43.771Z,99175.44
2023-01-26T09:31:12.276Z,99175.47
2023-01-26T09:33:39.961Z,99180.78
2023-01-26T09:36:10.936Z,99184.28
2023-01-26T09:38:40.030Z,99192.03
2023-01-26T09:41:15.895Z,99187.56
2023-01-26T09:43:58.227Z,99183.38
2023-01-26T09:46:49.302Z,99182.16
2023-01-26T09:49:28.748Z,99182.97
2023-01-26T09:52:15.881Z,99182.94
2023-01-26T09:54:58.487Z,99181.94
2023-01-26T09:57:48.380Z,99195.16
2023-01-26T10:00:33.779Z,99187.34
2023-01-26T10:03:13.591Z,99191.16
2023-01-26T10:06:06.145Z,99179.41
2023-01-26T10:08:58.753Z,99173.03
2023-01-26T10:11:33.505Z,99182.09
2023-01-26T10:14:49.650Z,99182.09
2023-01-26T10:17:32.725Z,99186.84
2023-01-26T10:20:39.157Z,99182.19
2023-01-26T10:23:17.950Z,99177.53
2023-01-26T10:25:50.891Z,99180.28
2023-01-26T10:28:34.908Z,99177.84
2023-01-26T10:31:05.903Z,99178.19
2023-01-26T10:33:38.041Z,99173.97
2023-01-26T10:36:08.083Z,99172.31
2023-01-26T10:38:35.846Z,99179.91
2023-01-26T10:41:06.436Z,99178.16
2023-01-26T10:43:50.078Z,99173.69
2023-01-26T10:47:02.640Z,99174.63
2023-01-26T10:49:30.312Z,99174.56
2023-01-26T10:52:22.815Z,99181.91
2023-01-26T10:55:12.969Z,99179.28
2023-01-26T10:57:42.539Z,99178.72
2023-01-26T11:00:24.362Z,99176.81
2023-01-26T11:02:56.453Z,99181.81
2023-01-26T11:05:26.062Z,99176.31
2023-01-26T11:08:00.308Z,99177.38
2023-01-26T11:10:34.185Z,99165.25
2023-01-26T11:13:22.470Z,99169.94
2023-01-26T11:16:02.818Z,99169.13
2023-01-26T11:18:46.498Z,99173.47
2023-01-26T11:21:49.971Z,99162.78
2023-01-26T11:24:33.244Z,99158.44
2023-01-26T11:27:15.904Z,99160.13
2023-01-26T11:30:11.184Z,99155.97
2023-01-26T11:32:51.838Z,99155.97
2023-01-26T11:35:52.128Z,99150.50
2023-01-26T11:38:40.676Z,99145.28
2023-01-26T11:42:05.419Z,99150.50
2023-01-26T11:44:51.699Z,99142.81
2023-01-26T11:47:34.259Z,99150.66
2023-01-26T11:50:19.435Z,99149.72
2023-01-26T11:53:16.017Z,99145.47
2023-01-26T11:55:54.429Z,99143.63
2023-01-26T11:58:38.995Z,99145.13
2023-01-26T12:01:21.048Z,99142.88
2023-01-26T12:03:51.848Z,99130.03
2023-01-26T12:06:37.451Z,99127.53
2023-01-26T12:09:20.852Z,99124.03
2023-01-26T12:12:19.838Z,99129.13
2023-01-26T12:15:16.027Z,99125.47
2023-01-26T12:18:00.418Z,99119.09
2023-01-26T12:20:45.796Z,99114.59
2023-01-26T12:23:46.979Z,99113.34
2023-01-26T12:26:23.408Z,99114.34
2023-01-26T12:29:09.680Z,99099.50
2023-01-26T12:32:13.690Z,99099.34
2023-01-26T12:34:42.669Z,99094.81
2023-01-26T12:37:33.818Z,99096.94
2023-01-26T12:40:54.312Z,99085.59
2023-01-26T12:43:58.146Z,99086.88
2023-01-26T12:46:32.177Z,99078.59
2023-01-26T12:49:14.697Z,99066.84
2023-01-26T12:51:49.788Z,99069.78
2023-01-26T12:54:34.835Z,99079.09
2023-01-26T12:57:07.165Z,99072.28
2023-01-26T12:59:48.141Z,99071.41
2023-01-26T13:02:26.810Z,99079.16
2023-01-26T13:04:55.350Z,99074.88
2023-01-26T13:07:39.595Z,99080.47
2023-01-26T13:10:18.705Z,99077.84
2023-01-26T13:12:55.318Z,99081.53
2023-01-26T13:15:32.366Z,99082.84
2023-01-26T13:18:04.175Z,99080.69
2023-01-26T13:20:46.150Z,99073.94
2023-01-26T13:23:40.913Z,99074.25
2023-01-26T13:26:16.523Z,99080.44
2023-01-26T13:28:49.847Z,99078.69
2023-01-26T13:31:50.089Z,99070.28
2023-01-26T13:34:24.678Z,99065.63
2023-01-26T13:36:56.408Z,99070.91
2023-01-26T13:39:34.895Z,99065.88
2023-01-26T13:42:11.041Z,99072.78
2023-01-26T13:44:45.526Z,99065.69
2023-01-26T13:47:22.531Z,99062.22
2023-01-26T13:49:50.963Z,99058.69
2023-01-26T13:52:26.043Z,99067.56
2023-01-26T13:54:57.773Z,99062.06
2023-01-26T13:57:30.567Z,99060.09
2023-01-26T14:00:00.666Z,99067.22
2023-01-26T14:02:38.716Z,99069.25
2023-01-26T14:05:07.078Z,99076.50
2023-01-26T14:07:43.633Z,99074.34
2023-01-26T14:10:21.337Z,99067.09
2023-01-26T14:12:57.884Z,99076.97
2023-01-26T14:15:31.509Z,99074.75
2023-01-26T14:18:01.376Z,99080.78
2023-01-26T14:20:34.812Z,99075.47
2023-01-26T14:23:14.364Z,99080.03
2023-01-26T14:26:25.320Z,99076.41
2023-01-26T14:28:52.992Z,99081.69
2023-01-26T14:31:23.697Z,99076.28
2023-01-26T14:33:57.306Z,99076.22
2023-01-26T14:36:33.029Z,99085.19
2023-01-26T14:39:01.091Z,99080.00
2023-01-26T14:41:31.964Z,99089.13
2023-01-26T14:44:05.982Z,99087.09
2023-01-26T14:46:56.819Z,99092.53
2023-01-26T14:49:48.839Z,99089.84
2023-01-26T14:52:39.511Z,99090.56
2023-01-26T14:55:14.481Z,99089.13
2023-01-26T14:57:42.775Z,99096.09
2023-01-26T15:00:30.754Z,99097.94
2023-01-26T15:03:03.876Z,99104.88
2023-01-26T15:05:42.041Z,99100.44
2023-01-26T15:08:28.907Z,99092.41
2023-01-26T15:11:22.596Z,99097.78
2023-01-26T15:13:55.458Z,99105.84
2023-01-26T15:16:26.357Z,99106.75
2023-01-26T15:19:09.011Z,99103.94
2023-01-26T15:21:43.664Z,99110.25
2023-01-26T15:24:15.258Z,99104.81
2023-01-26T15:26:49.996Z,99104.81
2023-01-26T15:29:32.619Z,99109.41
2023-01-26T15:32:01.389Z,99112.28
2023-01-26T15:34:40.483Z,99109.41
2023-01-26T15:37:32.547Z,99108.63
2023-01-26T15:40:00.363Z,99118.38
2023-01-26T15:42:30.901Z,99115.78
2023-01-26T15:44:58.889Z,99116.69
2023-01-26T15:47:26.572Z,99118.53
2023-01-26T15:49:54.252Z,99115.78
2023-01-26T15:52:26.535Z,99109.56
2023-01-26T15:54:54.337Z,99113.97
2023-01-26T15:57:21.968Z,99117.56
2023-01-26T15:59:51.666Z,99121.16
2023-01-26T16:02:21.116Z,99113.72
2023-01-26T16:04:48.934Z,99111.00
2023-01-26T16:07:19.240Z,99117.44
2023-01-26T16:09:49.050Z,99116.34
2023-01-26T16:12:31.119Z,99115.41
2023-01-26T16:15:00.740Z,99125.97
2023-01-26T16:17:28.983Z,99111.75
2023-01-26T16:19:58.111Z,99108.13
2023-01-26T16:22:25.945Z,99114.16
2023-01-26T16:24:53.908Z,99117.03
2023-01-26T16:27:22.333Z,99122.91
2023-01-26T16:29:50.195Z,99118.84
2023-01-26T16:32:30.176Z,99113.28
2023-01-26T16:34:57.989Z,99111.66
2023-01-26T16:37:25.566Z,99113.41
2023-01-26T16:39:53.095Z,99115.06
2023-01-26T16:42:21.697Z,99114.16
2023-01-26T16:44:50.021Z,99122.91
2023-01-26T16:47:17.652Z,99121.03
2023-01-26T16:49:45.641Z,99115.84
2023-01-26T16:52:16.507Z,99114.09
2023-01-26T16:54:45.656Z,99119.19
2023-01-26T16:57:13.239Z,99110.44
2023-01-26T16:59:40.850Z,99112.22
2023-01-26T17:02:32.788Z,99120.00
2023-01-26T17:05:06.190Z,99121.03
2023-01-26T17:07:33.760Z,99115.03
2023-01-26T17:10:01.352Z,99119.28
2023-01-26T17:12:29.278Z,99113.94
2023-01-26T17:14:56.865Z,99118.47
2023-01-26T17:17:24.659Z,99117.44
2023-01-26T17:19:52.459Z,99113.09
2023-01-26T17:22:20.014Z,99108.97
2023-01-26T17:24:47.543Z,99117.84
2023-01-26T17:27:15.470Z,99120.38
2023-01-26T17:29:43.329Z,99118.59
2023-01-26T17:32:11.043Z,99123.75
2023-01-26T17:34:38.573Z,99117.72
2023-01-26T17:37:06.232Z,99113.41
2023-01-26T17:39:33.901Z,99125.00
2023-01-26T17:42:01.559Z,99116.22
2023-01-26T17:44:29.250Z,99120.69
2023-01-26T17:46:56.942Z,99125.78
2023-01-26T17:49:24.962Z,99125.66
2023-01-26T17:51:53.144Z,99121.06
2023-01-26T17:54:20.914Z,99121.84
2023-01-26T17:56:48.615Z,99118.97
2023-01-26T17:59:16.428Z,99128.03
2023-01-26T18:01:44.325Z,99117.50
2023-01-26T18:04:12.063Z,99125.50
2023-01-26T18:06:39.948Z,99122.75
2023-01-26T18:09:07.900Z,99120.78
2023-01-26T18:11:35.881Z,99124.50
2023-01-26T18:14:04.478Z,99123.41
2023-01-26T18:16:32.171Z,99121.22
2023-01-26T18:19:04.375Z,99122.84
2023-01-26T18:21:34.634Z,99125.59
2023-01-26T18:24:05.358Z,99130.00
2023-01-26T18:26:36.490Z,99121.06
2023-01-26T18:29:06.513Z,99123.06
2023-01-26T18:31:37.924Z,99120.53
2023-01-26T18:34:05.650Z,99133.38
2023-01-26T18:36:33.791Z,99128.28
2023-01-26T18:39:06.296Z,99130.91
2023-01-26T18:41:35.200Z,99136.44
2023-01-26T18:44:05.643Z,99127.53
2023-01-26T18:46:33.298Z,99132.19
2023-01-26T18:49:01.286Z,99128.91
2023-01-26T18:51:36.368Z,99130.72
2023-01-26T18:54:05.835Z,99126.84
2023-01-26T18:56:33.754Z,99126.00
2023-01-26T18:59:01.409Z,99125.53
2023-01-26T19:01:29.247Z,99124.72
2023-01-26T19:03:58.586Z,99137.09
2023-01-26T19:06:28.364Z,99125.34
2023-01-26T19:09:02.690Z,99133.34
2023-01-26T19:11:38.774Z,99133.25
2023-01-26T19:14:08.392Z,99128.88
2023-01-26T19:16:36.680Z,99129.50
2023-01-26T19:19:05.117Z,99133.16
2023-01-26T19:21:33.971Z,99133.13
2023-01-26T19:24:07.713Z,99140.28
2023-01-26T19:26:35.375Z,99129.47
2023-01-26T19:29:03.068Z,99132.22
2023-01-26T19:31:32.034Z,99132.09
2023-01-26T19:34:03.367Z,99133.78
2023-01-26T19:36:33.281Z,99132.97
2023-01-26T19:39:03.587Z,99131.25
2023-01-26T19:41:31.438Z,99129.63
2023-01-26T19:43:59.317Z,99129.50
2023-01-26T19:46:26.993Z,99124.31
2023-01-26T19:48:54.934Z,99129.41
2023-01-26T19:51:29.435Z,99126.00
2023-01-26T19:53:59.314Z,99128.19
2023-01-26T19:56:35.951Z,99131.75
2023-01-26T19:59:08.357Z,99137.03
2023-01-26T20:01:36.488Z,99132.78
2023-01-26T20:04:07.754Z,99131.69
2023-01-26T20:06:38.082Z,99133.56
2023-01-26T20:09:07.714Z,99128.44
2023-01-26T20:11:36.088Z,99127.34
2023-01-26T20:14:10.889Z,99124.56
2023-01-26T20:16:43.938Z,99125.75
2023-01-26T20:19:12.720Z,99125.78
2023-01-26T20:21:41.366Z,99126.81
2023-01-26T20:24:14.334Z,99132.78
2023-01-26T20:26:49.608Z,99131.84
2023-01-26T20:29:19.761Z,99131.78
2023-01-26T20:31:49.841Z,99139.03
2023-01-26T20:34:17.638Z,99131.81
2023-01-26T20:36:45.748Z,99130.94
2023-01-26T20:39:24.993Z,99138.88
2023-01-26T20:41:54.302Z,99139.13
2023-01-26T20:44:21.964Z,99146.28
2023-01-26T20:46:49.948Z,99150.56
2023-01-26T20:49:18.968Z,99145.06
2023-01-26T20:51:47.200Z,99135.41
2023-01-26T20:54:17.018Z,99138.13
2023-01-26T20:56:49.925Z,99138.16
2023-01-26T20:59:18.983Z,99135.47
2023-01-26T21:01:46.663Z,99135.69
2023-01-26T21:04:14.929Z,99136.38
2023-01-26T21:06:42.644Z,99142.56
2023-01-26T21:09:12.667Z,99142.56
2023-01-26T21:11:40.628Z,99137.22
2023-01-26T21:14:13.468Z,99145.41
2023-01-26T21:16:41.675Z,99133.97
2023-01-26T21:19:09.606Z,99134.81
2023-01-26T21:21:37.298Z,99137.41
2023-01-26T21:24:05.515Z,99128.69
2023-01-26T21:26:33.130Z,99130.19
2023-01-26T21:29:04.282Z,99115.97
2023-01-26T21:31:33.987Z,99122.06
2023-01-26T21:34:01.981Z,99118.44
2023-01-26T21:36:32.042Z,99114.94
2023-01-26T21:39:01.029Z,99119.34
2023-01-26T21:41:50.517Z,99120.22
2023-01-26T21:44:28.787Z,99113.97
2023-01-26T21:47:03.658Z,99113.03
2023-01-26T21:49:31.545Z,99108.53
2023-01-26T21:52:18.224Z,99111.31
2023-01-26T21:54:45.925Z,99110.41
2023-01-26T21:57:32.167Z,99108.84
2023-01-26T21:59:59.831Z,99111.44
2023-01-26T22:02:27.518Z,99119.28
2023-01-26T22:04:55.427Z,99123.53
2023-01-26T22:07:23.052Z,99123.53
2023-01-26T22:09:50.768Z,99113.97
2023-01-26T22:12:18.552Z,99118.63
2023-01-26T22:14:46.450Z,99110.53
2023-01-26T22:17:14.063Z,99113.00
2023-01-26T22:19:41.643Z,99106.78
2023-01-26T22:22:09.244Z,99102.31
2023-01-26T22:24:36.895Z,99108.50
2023-01-26T22:27:06.613Z,99112.94
2023-01-26T22:29:37.639Z,99110.16
2023-01-26T22:32:05.556Z,99105.66
2023-01-26T22:34:33.466Z,99104.19
2023-01-26T22:37:01.207Z,99110.13
2023-01-26T22:39:28.954Z,99110.22
2023-01-26T22:41:56.578Z,99107.44
2023-01-26T22:44:24.320Z,99106.50
2023-01-26T22:46:52.560Z,99109.22
2023-01-26T22:49:20.130Z,99105.88
2023-01-26T22:51:47.906Z,99096.28
2023-01-26T22:54:15.812Z,99105.09
2023-01-26T22:56:43.670Z,99092.50
2023-01-26T22:59:11.372Z,99082.69
2023-01-26T23:01:39.288Z,99079.97
2023-01-26T23:04:08.589Z,99082.72
2023-01-26T23:06:36.294Z,99088.84
2023-01-26T23:09:14.165Z,99081.19
2023-01-26T23:11:41.759Z,99073.44
2023-01-26T23:14:09.458Z,99077.88
2023-01-26T23:16:37.219Z,99075.19
2023-01-26T23:19:05.181Z,99074.25
2023-01-26T23:21:32.818Z,99073.25
2023-01-26T23:24:00.784Z,99074.03
2023-01-26T23:26:31.563Z,99078.56
2023-01-26T23:28:59.319Z,99073.34
2023-01-26T23:31:27.217Z,99071.44
2023-01-26T23:33:54.875Z,99080.38
2023-01-26T23:36:22.640Z,99064.34
2023-01-26T23:38:50.499Z,99074.13
2023-01-26T23:41:19.084Z,99069.56
2023-01-26T23:43:46.960Z,99060.63
2023-01-26T23:46:14.555Z,99062.50
2023-01-26T23:48:42.526Z,99063.59
2023-01-26T23:51:12.251Z,99057.38
2023-01-26T23:53:40.203Z,99059.06
2023-01-26T23:56:16.411Z,99056.63
2023-01-26T23:58:45.654Z,99056.41
